createdAt,value
2022-08-14T00:02:18.338Z,7.00
2022-08-14T00:04:47.334Z,7.00
2022-08-14T00:07:15.621Z,7.00
2022-08-14T00:09:55.565Z,6.80
2022-08-14T00:12:34.127Z,6.70
2022-08-14T00:15:09.414Z,6.88
2022-08-14T00:17:47.424Z,7.00
2022-08-14T00:20:24.088Z,7.18
2022-08-14T00:22:58.429Z,6.93
2022-08-14T00:25:30.706Z,6.47
2022-08-14T00:28:10.925Z,6.07
2022-08-14T00:30:44.508Z,6.65
2022-08-14T00:33:15.964Z,6.72
2022-08-14T00:36:36.112Z,7.22
2022-08-14T00:38:34.806Z,6.30
2022-08-14T00:41:04.531Z,7.28
2022-08-14T00:43:32.927Z,7.18
2022-08-14T00:46:05.259Z,6.72
2022-08-14T00:48:38.444Z,8.90
2022-08-14T00:51:07.581Z,8.43
2022-08-14T00:53:36.503Z,6.95
2022-08-14T00:56:07.205Z,7.40
2022-08-14T00:58:44.893Z,7.07
2022-08-14T01:01:14.551Z,6.72
2022-08-14T01:03:49.800Z,8.20
2022-08-14T01:06:21.380Z,7.10
2022-08-14T01:08:57.575Z,7.30
2022-08-14T01:11:31.519Z,7.90
2022-08-14T01:14:04.985Z,7.40
2022-08-14T01:16:53.251Z,7.40
2022-08-14T01:19:43.495Z,6.75
2022-08-14T01:22:13.722Z,7.80
2022-08-14T01:24:50.896Z,7.70
2022-08-14T01:27:20.202Z,7.22
2022-08-14T01:30:03.563Z,6.90
2022-08-14T01:32:37.285Z,8.65
2022-08-14T01:35:19.689Z,7.22
2022-08-14T01:37:59.125Z,7.30
2022-08-14T01:40:36.324Z,6.70
2022-08-14T01:43:15.587Z,9.63
2022-08-14T01:45:49.048Z,8.25
2022-08-14T01:48:28.553Z,7.30
2022-08-14T01:51:01.258Z,7.22
2022-08-14T01:53:35.824Z,7.28
2022-08-14T01:56:12.029Z,8.20
2022-08-14T01:58:57.626Z,7.10
2022-08-14T02:01:27.404Z,7.10
2022-08-14T02:03:57.420Z,7.40
2022-08-14T02:06:33.155Z,7.38
2022-08-14T02:09:06.738Z,7.22
2022-08-14T02:11:47.498Z,7.30
2022-08-14T02:14:31.463Z,7.28
2022-08-14T02:17:01.112Z,7.65
2022-08-14T02:19:31.796Z,7.50
2022-08-14T02:22:03.404Z,7.65
2022-08-14T02:24:39.368Z,7.85
2022-08-14T02:28:23.309Z,7.90
2022-08-14T02:30:02.123Z,7.63
2022-08-14T02:32:36.657Z,7.38
2022-08-14T02:35:10.264Z,7.63
2022-08-14T02:37:47.216Z,7.88
2022-08-14T02:40:18.342Z,7.72
2022-08-14T02:42:54.648Z,8.45
2022-08-14T02:45:25.722Z,9.32
2022-08-14T02:48:02.161Z,8.10
2022-08-14T02:50:33.560Z,8.60
2022-08-14T02:53:02.852Z,8.43
2022-08-14T02:55:33.245Z,7.97
2022-08-14T02:58:03.232Z,7.68
2022-08-14T03:00:33.178Z,8.27
2022-08-14T03:03:02.910Z,7.95
2022-08-14T03:05:41.260Z,8.50
2022-08-14T03:08:11.785Z,7.50
2022-08-14T03:10:49.242Z,7.72
2022-08-14T03:13:19.438Z,8.25
2022-08-14T03:15:51.017Z,7.82
2022-08-14T03:18:31.150Z,11.23
2022-08-14T03:21:02.092Z,8.55
2022-08-14T03:23:37.896Z,8.35
2022-08-14T03:26:12.640Z,8.55
2022-08-14T03:28:42.261Z,8.20
2022-08-14T03:31:13.081Z,7.75
2022-08-14T03:33:41.891Z,8.50
2022-08-14T03:37:38.050Z,7.55
2022-08-14T03:39:11.790Z,7.93
2022-08-14T03:41:48.775Z,7.78
2022-08-14T03:45:25.324Z,8.00
2022-08-14T03:47:06.658Z,8.43
2022-08-14T03:49:42.393Z,8.00
2022-08-14T03:52:27.768Z,7.32
2022-08-14T03:55:00.317Z,7.90
2022-08-14T03:57:37.000Z,8.25
2022-08-14T04:00:09.075Z,8.38
2022-08-14T04:02:47.052Z,8.80
2022-08-14T04:05:16.642Z,8.07
2022-08-14T04:08:00.156Z,8.55
2022-08-14T04:10:34.936Z,8.10
2022-08-14T04:13:06.323Z,9.13
2022-08-14T04:15:40.953Z,8.70
2022-08-14T04:18:24.313Z,9.23
2022-08-14T04:20:55.332Z,8.38
2022-08-14T04:23:29.668Z,8.52
2022-08-14T04:26:01.409Z,8.60
2022-08-14T04:29:09.110Z,8.20
2022-08-14T04:31:34.674Z,9.02
2022-08-14T04:34:16.866Z,8.40
2022-08-14T04:37:07.418Z,8.52
2022-08-14T04:39:56.557Z,8.68
2022-08-14T04:42:47.526Z,8.68
2022-08-14T04:45:21.329Z,8.52
2022-08-14T04:48:10.001Z,9.23
2022-08-14T04:50:44.544Z,9.10
2022-08-14T04:53:14.006Z,9.30
2022-08-14T04:55:43.078Z,8.73
2022-08-14T04:58:22.003Z,9.07
2022-08-14T05:01:01.054Z,9.27
2022-08-14T05:03:31.038Z,9.30
2022-08-14T05:06:01.034Z,8.85
2022-08-14T05:08:31.743Z,9.45
2022-08-14T05:11:19.227Z,9.25
2022-08-14T05:16:39.294Z,9.32
2022-08-14T05:19:18.400Z,8.90
2022-08-14T05:22:15.576Z,9.57
2022-08-14T05:24:48.734Z,8.73
2022-08-14T05:27:22.890Z,8.15
2022-08-14T05:29:53.065Z,8.52
2022-08-14T05:32:23.099Z,7.85
2022-08-14T05:34:58.024Z,7.90
2022-08-14T05:37:28.227Z,7.93
2022-08-14T05:39:56.985Z,8.20
2022-08-14T05:42:29.461Z,8.48
2022-08-14T05:45:02.388Z,8.30
2022-08-14T05:47:39.589Z,7.75
2022-08-14T05:50:17.095Z,7.88
2022-08-14T05:52:46.646Z,8.00
2022-08-14T05:55:15.246Z,7.93
2022-08-14T05:57:49.508Z,8.25
2022-08-14T06:00:24.430Z,8.27
2022-08-14T06:02:58.186Z,7.78
2022-08-14T06:05:29.458Z,7.57
2022-08-14T06:07:58.443Z,7.75
2022-08-14T06:10:28.236Z,7.85
2022-08-14T06:12:57.931Z,7.22
2022-08-14T06:15:29.984Z,8.02
2022-08-14T06:18:01.772Z,7.57
2022-08-14T06:20:30.714Z,8.00
2022-08-14T06:22:59.490Z,7.45
2022-08-14T06:25:28.585Z,7.68
2022-08-14T06:27:58.071Z,7.90
2022-08-14T06:30:30.382Z,8.57
2022-08-14T06:33:11.951Z,7.25
2022-08-14T06:35:43.916Z,7.20
2022-08-14T06:38:17.525Z,7.43
2022-08-14T06:40:47.140Z,6.75
2022-08-14T06:43:17.025Z,7.65
2022-08-14T06:45:53.959Z,7.95
2022-08-14T06:48:25.015Z,7.00
2022-08-14T06:50:54.170Z,8.40
2022-08-14T06:53:28.201Z,6.93
2022-08-14T06:56:02.129Z,8.65
2022-08-14T06:58:32.154Z,8.00
2022-08-14T07:01:23.068Z,7.28
2022-08-14T07:04:18.820Z,8.30
2022-08-14T07:06:51.795Z,6.90
2022-08-14T07:09:24.261Z,7.65
2022-08-14T07:11:52.905Z,7.00
2022-08-14T07:14:21.239Z,7.05
2022-08-14T07:16:49.576Z,8.02
2022-08-14T07:19:21.126Z,8.65
2022-08-14T07:21:50.271Z,7.43
2022-08-14T07:24:22.161Z,7.70
2022-08-14T07:26:54.856Z,6.78
2022-08-14T07:29:26.300Z,7.53
2022-08-14T07:31:57.137Z,7.20
2022-08-14T07:34:40.516Z,7.28
2022-08-14T07:37:09.886Z,8.27
2022-08-14T07:39:38.621Z,7.28
2022-08-14T07:42:08.020Z,7.53
2022-08-14T07:44:46.409Z,6.95
2022-08-14T07:47:18.866Z,7.45
2022-08-14T07:49:58.904Z,7.95
2022-08-14T07:52:30.523Z,7.82
2022-08-14T07:55:02.184Z,7.75
2022-08-14T07:57:30.549Z,7.30
2022-08-14T07:59:58.885Z,7.53
2022-08-14T08:02:32.738Z,6.80
2022-08-14T08:05:03.894Z,7.03
2022-08-14T08:07:33.261Z,7.50
2022-08-14T08:10:02.524Z,7.32
2022-08-14T08:12:32.214Z,6.90
2022-08-14T08:15:07.199Z,8.18
2022-08-14T08:17:38.839Z,7.53
2022-08-14T08:20:12.524Z,7.45
2022-08-14T08:22:47.929Z,7.43
2022-08-14T08:25:18.183Z,9.60
2022-08-14T08:27:55.950Z,7.78
2022-08-14T08:30:24.904Z,7.35
2022-08-14T08:32:53.785Z,7.88
2022-08-14T08:35:25.708Z,7.20
2022-08-14T08:39:18.585Z,9.65
2022-08-14T08:41:03.380Z,7.63
2022-08-14T08:43:33.082Z,7.70
2022-08-14T08:46:05.239Z,6.55
2022-08-14T08:48:52.166Z,7.75
2022-08-14T08:51:25.303Z,8.48
2022-08-14T08:54:00.750Z,7.32
2022-08-14T08:56:40.510Z,7.10
2022-08-14T08:59:20.398Z,7.00
2022-08-14T09:01:52.351Z,7.10
2022-08-14T09:04:25.289Z,7.32
2022-08-14T09:07:08.958Z,6.95
2022-08-14T09:09:53.555Z,7.47
2022-08-14T09:12:22.969Z,6.40
2022-08-14T09:14:53.259Z,6.80
2022-08-14T09:17:25.824Z,6.50
2022-08-14T09:19:54.951Z,6.82
2022-08-14T09:22:33.347Z,6.90
2022-08-14T09:25:07.414Z,6.72
2022-08-14T09:27:36.363Z,6.72
2022-08-14T09:30:31.246Z,6.30
2022-08-14T09:33:03.795Z,6.28
2022-08-14T09:35:38.867Z,6.30
2022-08-14T09:38:19.601Z,6.78
2022-08-14T09:41:01.104Z,6.25
2022-08-14T09:43:31.797Z,6.53
2022-08-14T09:46:02.672Z,6.47
2022-08-14T09:48:31.523Z,6.03
2022-08-14T09:54:17.999Z,5.68
2022-08-14T09:56:31.131Z,5.65
2022-08-14T09:59:01.122Z,5.53
2022-08-14T10:01:37.696Z,6.63
2022-08-14T10:04:33.818Z,5.47
2022-08-14T10:07:04.404Z,4.97
2022-08-14T10:09:35.071Z,4.80
2022-08-14T10:12:05.037Z,5.50
2022-08-14T10:14:37.137Z,4.80
2022-08-14T10:17:06.947Z,5.13
2022-08-14T10:19:37.051Z,5.18
2022-08-14T10:23:13.382Z,5.07
2022-08-14T10:24:57.142Z,4.97
2022-08-14T10:27:28.743Z,5.15
2022-08-14T10:30:00.792Z,4.65
2022-08-14T10:32:40.092Z,5.43
2022-08-14T10:35:13.620Z,4.88
2022-08-14T10:37:46.712Z,4.70
2022-08-14T10:40:38.387Z,5.13
2022-08-14T10:43:06.384Z,5.28
2022-08-14T10:45:42.082Z,5.38
2022-08-14T10:48:23.712Z,5.03
2022-08-14T10:50:59.764Z,4.82
2022-08-14T10:53:32.935Z,4.82
2022-08-14T10:56:05.452Z,4.53
2022-08-14T10:58:34.987Z,4.20
2022-08-14T11:01:07.939Z,4.65
2022-08-14T11:03:56.717Z,4.75
2022-08-14T11:06:25.571Z,5.05
2022-08-14T11:08:55.785Z,5.18
2022-08-14T11:11:35.737Z,4.97
2022-08-14T11:14:09.537Z,4.93
2022-08-14T11:16:40.985Z,4.50
2022-08-14T11:19:18.129Z,4.75
2022-08-14T11:21:51.725Z,4.95
2022-08-14T11:24:50.479Z,5.10
2022-08-14T11:27:20.245Z,6.03
2022-08-14T11:29:52.782Z,5.10
2022-08-14T11:32:31.015Z,5.38
2022-08-14T11:35:01.543Z,4.65
2022-08-14T11:37:40.618Z,4.10
2022-08-14T11:40:19.910Z,4.43
2022-08-14T11:42:59.444Z,4.45
2022-08-14T11:45:34.324Z,4.50
2022-08-14T11:49:03.374Z,3.80
2022-08-14T11:51:13.730Z,4.15
2022-08-14T11:53:43.662Z,4.03
2022-08-14T11:56:14.094Z,4.13
2022-08-14T11:58:43.802Z,3.75
2022-08-14T12:01:12.104Z,4.65
2022-08-14T12:03:51.584Z,4.20
2022-08-14T12:06:29.658Z,4.72
2022-08-14T12:09:08.667Z,6.55
2022-08-14T12:11:44.336Z,4.78
2022-08-14T12:14:34.824Z,4.55
2022-08-14T12:17:06.598Z,4.50
2022-08-14T12:19:51.089Z,4.47
2022-08-14T12:22:29.385Z,4.70
2022-08-14T12:24:58.661Z,4.78
2022-08-14T12:27:43.465Z,4.65
2022-08-14T12:30:34.361Z,4.70
2022-08-14T12:33:06.770Z,5.15
2022-08-14T12:35:39.919Z,4.78
2022-08-14T12:38:10.426Z,5.22
2022-08-14T12:40:48.577Z,4.43
2022-08-14T12:43:18.122Z,5.00
2022-08-14T12:45:50.640Z,4.82
2022-08-14T12:48:21.135Z,4.72
2022-08-14T12:50:59.673Z,5.15
2022-08-14T12:53:36.190Z,4.70
2022-08-14T12:56:22.619Z,4.70
2022-08-14T12:58:56.975Z,5.15
2022-08-14T13:01:27.339Z,5.05
2022-08-14T13:04:07.188Z,4.35
2022-08-14T13:06:35.907Z,4.43
2022-08-14T13:09:11.142Z,4.32
2022-08-14T13:11:41.412Z,4.50
2022-08-14T13:14:17.540Z,4.43
2022-08-14T13:16:50.187Z,4.85
2022-08-14T13:19:20.046Z,4.50
2022-08-14T13:21:58.627Z,4.38
2022-08-14T13:24:35.371Z,4.63
2022-08-14T13:27:04.982Z,5.10
2022-08-14T13:29:35.512Z,4.20
2022-08-14T13:32:09.114Z,4.35
2022-08-14T13:34:37.792Z,5.03
2022-08-14T13:37:07.167Z,4.65
2022-08-14T13:39:36.492Z,4.35
2022-08-14T13:42:11.070Z,4.55
2022-08-14T13:44:42.815Z,4.30
2022-08-14T13:47:14.854Z,4.28
2022-08-14T13:49:57.156Z,4.50
2022-08-14T13:52:51.958Z,6.60
2022-08-14T13:55:17.435Z,4.70
2022-08-14T13:57:51.428Z,4.70
2022-08-14T14:00:35.628Z,4.40
2022-08-14T14:03:21.983Z,4.72
2022-08-14T14:05:54.335Z,4.30
2022-08-14T14:08:47.531Z,4.32
2022-08-14T14:11:14.135Z,4.20
2022-08-14T14:13:44.980Z,4.60
2022-08-14T14:16:15.376Z,4.80
2022-08-14T14:18:55.747Z,4.68
2022-08-14T14:21:26.534Z,4.45
2022-08-14T14:23:57.977Z,4.60
2022-08-14T14:26:27.805Z,4.57
2022-08-14T14:28:57.051Z,4.80
2022-08-14T14:31:29.564Z,4.50
2022-08-14T14:34:01.000Z,4.38
2022-08-14T14:36:36.538Z,4.88
2022-08-14T14:39:06.856Z,4.68
2022-08-14T14:41:44.073Z,4.55
2022-08-14T14:44:16.115Z,5.18
2022-08-14T14:46:50.850Z,4.88
2022-08-14T14:49:22.109Z,4.78
2022-08-14T14:51:55.917Z,4.53
2022-08-14T14:54:31.192Z,4.68
2022-08-14T14:57:09.383Z,5.45
2022-08-14T14:59:38.069Z,4.70
2022-08-14T15:02:08.067Z,4.60
2022-08-14T15:04:43.614Z,4.28
2022-08-14T15:07:13.175Z,4.60
2022-08-14T15:09:45.660Z,4.45
2022-08-14T15:12:55.269Z,4.88
2022-08-14T15:15:08.461Z,4.80
2022-08-14T15:17:41.589Z,5.55
2022-08-14T15:20:17.534Z,4.93
2022-08-14T15:23:00.707Z,4.97
2022-08-14T15:25:31.730Z,4.80
2022-08-14T15:28:00.775Z,5.00
2022-08-14T15:30:32.580Z,5.82
2022-08-14T15:33:01.300Z,5.10
2022-08-14T15:35:33.886Z,4.65
2022-08-14T15:38:07.870Z,4.65
2022-08-14T15:40:37.603Z,5.20
2022-08-14T15:43:10.813Z,4.60
2022-08-14T15:45:42.032Z,4.72
2022-08-14T15:48:22.040Z,4.45
2022-08-14T15:50:52.089Z,4.68
2022-08-14T15:53:22.382Z,4.82
2022-08-14T15:55:52.889Z,5.55
2022-08-14T15:58:21.801Z,4.57
2022-08-14T16:01:07.661Z,5.55
2022-08-14T16:03:40.936Z,4.55
2022-08-14T16:06:17.661Z,4.55
2022-08-14T16:08:50.351Z,4.45
2022-08-14T16:11:28.839Z,5.07
2022-08-14T16:14:01.728Z,4.60
2022-08-14T16:16:47.405Z,5.03
2022-08-14T16:19:19.826Z,5.05
2022-08-14T16:22:02.098Z,4.85
2022-08-14T16:25:02.329Z,4.68
2022-08-14T16:27:38.861Z,5.25
2022-08-14T16:30:11.292Z,4.82
2022-08-14T16:32:55.499Z,4.85
2022-08-14T16:35:25.037Z,4.75
2022-08-14T16:38:19.880Z,4.47
2022-08-14T16:40:48.263Z,4.50
2022-08-14T16:43:17.547Z,4.70
2022-08-14T16:45:47.251Z,5.07
2022-08-14T16:48:57.832Z,5.15
2022-08-14T16:51:12.585Z,4.68
2022-08-14T16:53:45.039Z,4.78
2022-08-14T16:56:23.672Z,5.03
2022-08-14T16:59:05.074Z,4.90
2022-08-14T17:01:33.569Z,5.25
2022-08-14T17:04:04.538Z,5.20
2022-08-14T17:06:42.889Z,5.00
2022-08-14T17:09:33.165Z,4.78
2022-08-14T17:12:07.475Z,4.93
2022-08-14T17:14:54.476Z,4.57
2022-08-14T17:17:24.365Z,6.07
2022-08-14T17:19:59.712Z,5.03
2022-08-14T17:22:48.759Z,4.88
2022-08-14T17:25:22.542Z,4.70
2022-08-14T17:28:51.417Z,4.93
2022-08-14T17:30:59.361Z,4.72
2022-08-14T17:33:33.772Z,4.50
2022-08-14T17:36:21.499Z,5.28
2022-08-14T17:39:06.265Z,4.43
2022-08-14T17:41:43.742Z,5.15
2022-08-14T17:44:19.882Z,4.75
2022-08-14T17:46:55.022Z,4.90
2022-08-14T17:49:26.282Z,4.35
2022-08-14T17:52:03.688Z,4.55
2022-08-14T17:54:38.050Z,4.78
2022-08-14T17:57:13.061Z,4.60
2022-08-14T17:59:42.690Z,5.22
2022-08-14T18:02:16.488Z,5.05
2022-08-14T18:04:46.214Z,5.07
2022-08-14T18:07:50.613Z,5.00
2022-08-14T18:10:53.170Z,5.63
2022-08-14T18:12:56.334Z,5.50
2022-08-14T18:15:35.427Z,5.10
2022-08-14T18:18:07.059Z,5.00
2022-08-14T18:21:42.272Z,4.95
2022-08-14T18:23:26.147Z,5.70
2022-08-14T18:25:57.733Z,5.80
2022-08-14T18:28:51.225Z,5.50
2022-08-14T18:31:42.196Z,5.40
2022-08-14T18:34:30.816Z,5.78
2022-08-14T18:37:13.948Z,4.93
2022-08-14T18:40:01.643Z,4.80
2022-08-14T18:42:43.929Z,4.45
2022-08-14T18:45:15.964Z,4.53
2022-08-14T18:50:48.749Z,5.90
2022-08-14T18:53:24.600Z,5.97
2022-08-14T18:55:54.616Z,4.97
2022-08-14T18:58:28.223Z,5.40
2022-08-14T19:01:01.943Z,5.28
2022-08-14T19:03:55.010Z,6.18
2022-08-14T19:06:41.910Z,6.80
2022-08-14T19:09:26.286Z,5.03
2022-08-14T19:11:54.682Z,6.63
2022-08-14T19:14:38.275Z,5.45
2022-08-14T19:17:27.898Z,5.65
2022-08-14T19:20:10.493Z,5.72
2022-08-14T19:22:40.446Z,5.95
2022-08-14T19:25:10.089Z,5.22
2022-08-14T19:27:41.128Z,5.47
2022-08-14T19:30:24.388Z,14.82
2022-08-14T19:32:55.899Z,5.65
2022-08-14T19:35:55.569Z,5.55
2022-08-14T19:38:48.033Z,5.00
2022-08-14T19:41:17.040Z,5.28
2022-08-14T19:43:50.658Z,5.40
2022-08-14T19:46:37.736Z,5.35
2022-08-14T19:49:09.407Z,5.60
2022-08-14T19:51:44.620Z,7.18
2022-08-14T19:54:13.324Z,5.88
2022-08-14T19:56:45.288Z,5.82
2022-08-14T19:59:18.336Z,5.75
2022-08-14T20:01:49.406Z,5.50
2022-08-14T20:04:45.979Z,5.85
2022-08-14T20:07:59.364Z,5.95
2022-08-14T20:11:12.329Z,5.93
2022-08-14T20:13:15.561Z,5.57
2022-08-14T20:15:52.532Z,5.18
2022-08-14T20:18:50.158Z,5.47
2022-08-14T20:21:16.192Z,4.88
2022-08-14T20:23:48.283Z,5.50
2022-08-14T20:26:31.453Z,5.35
2022-08-14T20:29:04.947Z,6.13
2022-08-14T20:31:36.461Z,5.47
2022-08-14T20:34:07.909Z,4.85
2022-08-14T20:36:49.094Z,4.70
2022-08-14T20:39:17.436Z,5.88
2022-08-14T20:41:48.949Z,4.13
2022-08-14T20:44:47.442Z,4.40
2022-08-14T20:47:24.123Z,4.63
2022-08-14T20:49:54.478Z,5.18
2022-08-14T20:52:30.726Z,8.75
2022-08-14T20:54:59.343Z,3.65
2022-08-14T20:57:43.877Z,3.03
2022-08-14T21:00:13.253Z,5.63
2022-08-14T21:02:50.322Z,3.38
2022-08-14T21:05:33.321Z,3.83
2022-08-14T21:08:08.430Z,5.35
2022-08-14T21:10:44.785Z,3.40
2022-08-14T21:14:08.579Z,3.65
2022-08-14T21:16:03.708Z,3.45
2022-08-14T21:18:47.446Z,3.80
2022-08-14T21:21:17.886Z,4.18
2022-08-14T21:23:54.194Z,4.22
2022-08-14T21:26:50.970Z,4.40
2022-08-14T21:29:11.946Z,4.03
2022-08-14T21:31:41.486Z,4.28
2022-08-14T21:34:27.551Z,4.25
2022-08-14T21:37:09.114Z,4.10
2022-08-14T21:39:38.791Z,4.20
2022-08-14T21:42:11.067Z,4.30
2022-08-14T21:44:43.718Z,4.50
2022-08-14T21:47:12.960Z,4.68
2022-08-14T21:49:46.293Z,4.50
2022-08-14T21:52:50.280Z,4.65
2022-08-14T21:55:09.082Z,4.65
2022-08-14T21:57:53.658Z,4.70
2022-08-14T22:00:31.563Z,4.57
2022-08-14T22:03:04.699Z,4.60
2022-08-14T22:05:34.348Z,4.13
2022-08-14T22:08:04.009Z,4.68
2022-08-14T22:10:35.695Z,4.68
2022-08-14T22:13:05.309Z,4.25
2022-08-14T22:15:35.426Z,4.75
2022-08-14T22:18:05.142Z,4.60
2022-08-14T22:20:36.257Z,4.60
2022-08-14T22:23:06.399Z,5.05
2022-08-14T22:25:41.166Z,4.82
2022-08-14T22:28:11.153Z,5.00
2022-08-14T22:30:41.735Z,5.25
2022-08-14T22:33:13.523Z,5.30
2022-08-14T22:35:43.461Z,5.25
2022-08-14T22:38:36.469Z,5.43
2022-08-14T22:41:27.421Z,5.22
2022-08-14T22:43:51.029Z,5.70
2022-08-14T22:46:20.462Z,5.68
2022-08-14T22:48:49.680Z,5.38
2022-08-14T22:51:20.560Z,5.50
2022-08-14T22:53:52.328Z,6.15
2022-08-14T22:56:29.000Z,6.25
2022-08-14T22:58:58.441Z,5.35
2022-08-14T23:01:55.461Z,5.45
2022-08-14T23:04:34.339Z,5.03
2022-08-14T23:07:22.175Z,5.22
2022-08-14T23:09:56.767Z,5.13
2022-08-14T23:12:28.481Z,5.15
2022-08-14T23:14:57.589Z,5.50
2022-08-14T23:17:26.478Z,5.68
2022-08-14T23:19:56.629Z,5.82
2022-08-14T23:22:26.801Z,5.22
2022-08-14T23:24:56.838Z,6.15
2022-08-14T23:27:31.934Z,5.90
2022-08-14T23:30:31.953Z,5.53
2022-08-14T23:33:02.998Z,5.35
2022-08-14T23:35:33.165Z,5.55
2022-08-14T23:38:05.640Z,5.60
2022-08-14T23:40:35.744Z,5.40
2022-08-14T23:43:09.133Z,5.57
2022-08-14T23:45:38.620Z,5.38
2022-08-14T23:48:09.838Z,5.78
2022-08-14T23:50:41.949Z,5.95
2022-08-14T23:53:28.538Z,5.80
2022-08-14T23:56:07.829Z,5.50
2022-08-14T23:58:36.875Z,5.40
